Time;durP1;ratioP1;P1;durP2;ratioP2;P2;SDS_P1;SDS_P2;PMS_P1;PMS_P2;Temp;Humidity;BMP_temperature;BMP_pressure;BME280_temperature;BME280_humidity;BME280_pressure;Samples;Min_cycle;Max_cycle;Signal;HPM_P1;HPM_P2
2023/10/26 05:49:54;;;;;;;6.82;5.78;;;;;;;;;;10577516;27;20752;-88
2023/10/26 05:54:55;;;;;;;7.53;5.60;;;;;;;;;;10543893;28;20028;-87
2023/10/26 05:59:56;;;;;;;8.68;6.85;;;;;;;;;;10556204;28;20395;-86
2023/10/26 06:04:57;;;;;;;9.52;8.05;;;;;;;;;;10570846;28;20032;-85
2023/10/26 06:09:58;;;;;;;;;;;;;;;;;;10556091;28;20383;-85
2023/10/26 06:14:59;;;;;;;6.03;4.55;;;;;;;;;;10543019;28;19941;-85
2023/10/26 06:20:00;;;;;;;;;;;;;;;;;;10543638;28;20030;-85
2023/10/26 06:25:01;;;;;;;8.57;6.25;;;;;;;;;;10547945;28;19904;-84
2023/10/26 06:30:03;;;;;;;16.75;11.18;;;;;;;;;;10552842;28;20029;-83
2023/10/26 06:35:04;;;;;;;5.28;4.78;;;;;;;;;;10554608;28;20024;-84
2023/10/26 06:40:06;;;;;;;6.00;5.22;;;;;;;;;;10553936;28;20119;-84
2023/10/26 06:45:08;;;;;;;10.27;8.27;;;;;;;;;;10555008;28;20400;-84
2023/10/26 06:50:09;;;;;;;9.00;8.10;;;;;;;;;;10555826;28;20411;-84
2023/10/26 06:55:16;;;;;;;4.80;4.30;;;;;;;;;;10552644;28;20063;-84
2023/10/26 07:00:17;;;;;;;4.80;3.20;;;;;;;;;;10533153;28;20046;-84
2023/10/26 07:05:18;;;;;;;3.85;2.30;;;;;;;;;;10528448;28;20029;-85
2023/10/26 07:10:20;;;;;;;5.40;3.70;;;;;;;;;;10515589;28;20119;-78
2023/10/26 07:15:21;;;;;;;5.30;4.80;;;;;;;;;;10519967;28;20024;-82
2023/10/26 07:20:22;;;;;;;4.97;4.15;;;;;;;;;;10521385;28;20017;-82
2023/10/26 07:25:23;;;;;;;5.32;4.13;;;;;;;;;;10519041;28;20123;-82
2023/10/26 07:30:24;;;;;;;6.38;4.90;;;;;;;;;;10516864;28;20049;-84
2023/10/26 07:35:25;;;;;;;5.65;4.57;;;;;;;;;;10512391;28;20127;-83
2023/10/26 07:40:27;;;;;;;3.63;3.22;;;;;;;;;;10512542;28;20462;-83
2023/10/26 07:45:28;;;;;;;5.90;4.85;;;;;;;;;;10514483;28;20025;-82
2023/10/26 07:50:29;;;;;;;4.00;3.60;;;;;;;;;;10521187;28;20039;-82
2023/10/26 07:55:30;;;;;;;4.85;4.03;;;;;;;;;;10520662;28;20032;-83
2023/10/26 08:00:31;;;;;;;4.60;3.70;;;;;;;;;;10516172;28;20112;-84
2023/10/26 08:05:32;;;;;;;5.45;4.13;;;;;;;;;;10518909;28;20081;-83
2023/10/26 08:10:36;;;;;;;6.40;4.28;;;;;;;;;;10517811;28;20028;-83
2023/10/26 08:15:40;;;;;;;6.90;6.20;;;;;;;;;;10519684;28;20033;-81
2023/10/26 08:20:41;;;;;;;6.88;6.15;;;;;;;;;;10532817;28;20454;-80
2023/10/26 08:25:42;;;;;;;5.75;5.18;;;;;;;;;;10517914;28;20031;-81
2023/10/26 08:30:43;;;;;;;6.20;5.28;;;;;;;;;;10509181;28;20389;-81
2023/10/26 08:35:51;;;;;;;7.03;6.32;;;;;;;;;;10507972;28;20025;-81
2023/10/26 08:40:52;;;;;;;9.82;6.43;;;;;;;;;;10510501;28;20043;-81
2023/10/26 08:45:55;;;;;;;6.38;5.57;;;;;;;;;;10508625;28;20046;-81
2023/10/26 08:50:56;;;;;;;10.15;7.13;;;;;;;;;;10506482;28;20032;-82
2023/10/26 08:55:59;;;;;;;8.18;7.22;;;;;;;;;;10514359;28;20025;-81
2023/10/26 09:01:04;;;;;;;8.45;7.20;;;;;;;;;;10515917;28;20021;-82
2023/10/26 09:06:05;;;;;;;9.27;7.70;;;;;;;;;;10512361;28;20024;-83
2023/10/26 09:11:20;;;;;;;6.50;5.80;;;;;;;;;;10516404;28;20078;-81
2023/10/26 09:16:35;;;;;;;8.73;6.65;;;;;;;;;;10517527;28;20028;-83
2023/10/26 09:21:53;;;;;;;8.75;7.32;;;;;;;;;;10517491;28;20092;-83
2023/10/26 09:26:55;;;;;;;7.82;6.05;;;;;;;;;;10534464;28;20024;-82
2023/10/26 09:31:56;;;;;;;10.65;8.73;;;;;;;;;;10512791;28;20028;-81
2023/10/26 09:36:59;;;;;;;8.70;7.10;;;;;;;;;;10509692;28;20035;-82
2023/10/26 09:42:01;;;;;;;10.65;7.70;;;;;;;;;;10510694;28;20024;-82
2023/10/26 09:47:03;;;;;;;10.23;7.88;;;;;;;;;;10514655;28;20032;-84
2023/10/26 09:52:05;;;;;;;11.38;8.93;;;;;;;;;;10507545;28;20047;-83
2023/10/26 09:57:17;;;;;;;11.55;8.68;;;;;;;;;;10511469;28;20120;-83
2023/10/26 10:02:19;;;;;;;9.30;6.93;;;;;;;;;;10521112;28;20021;-83
2023/10/26 10:07:39;;;;;;;10.45;7.57;;;;;;;;;;10515925;28;20064;-82
2023/10/26 10:12:42;;;;;;;9.43;8.00;;;;;;;;;;10516569;28;20029;-79
2023/10/26 10:17:43;;;;;;;10.27;7.47;;;;;;;;;;10508337;28;20025;-82
2023/10/26 10:22:45;;;;;;;10.23;8.10;;;;;;;;;;10512736;28;20037;-82
2023/10/26 10:27:49;;;;;;;9.15;6.82;;;;;;;;;;10515847;28;20021;-82
2023/10/26 10:32:53;;;;;;;7.72;6.88;;;;;;;;;;10539150;28;20051;-84
2023/10/26 10:43:14;;;;;;;9.75;7.88;;;;;;;;;;10520879;28;20021;-85
2023/10/26 10:48:15;;;;;;;13.57;10.90;;;;;;;;;;10518709;28;20040;-83
2023/10/26 10:53:17;;;;;;;20.70;16.52;;;;;;;;;;10518890;28;20094;-84
2023/10/26 10:58:18;;;;;;;16.02;13.00;;;;;;;;;;10516970;28;20468;-83
2023/10/26 11:03:19;;;;;;;23.55;19.52;;;;;;;;;;10514246;28;20215;-83
2023/10/26 11:08:20;;;;;;;16.92;13.50;;;;;;;;;;10516937;28;20118;-83
2023/10/26 11:13:22;;;;;;;16.02;13.48;;;;;;;;;;10517660;28;20444;-84
2023/10/26 11:18:23;;;;;;;12.40;8.85;;;;;;;;;;10518871;28;20430;-84
2023/10/26 11:23:25;;;;;;;12.45;10.18;;;;;;;;;;10532780;28;20025;-82
2023/10/26 11:28:35;;;;;;;15.93;12.57;;;;;;;;;;10520266;28;20048;-83
2023/10/26 11:33:39;;;;;;;14.25;12.48;;;;;;;;;;10516481;28;20025;-82
2023/10/26 11:38:47;;;;;;;14.60;13.02;;;;;;;;;;10516463;28;20040;-83
2023/10/26 11:43:48;;;;;;;27.42;22.75;;;;;;;;;;10519440;28;20066;-82
2023/10/26 11:48:52;;;;;;;15.65;12.68;;;;;;;;;;10516894;28;20044;-81
2023/10/26 11:53:53;;;;;;;20.27;15.25;;;;;;;;;;10520848;28;20044;-82
2023/10/26 11:58:55;;;;;;;13.90;11.43;;;;;;;;;;10511461;22;20516;-83
2023/10/26 12:03:56;;;;;;;16.00;13.18;;;;;;;;;;10415484;28;20029;-84
2023/10/26 12:08:57;;;;;;;14.20;12.27;;;;;;;;;;10424380;28;20032;-82
2023/10/26 12:13:58;;;;;;;10.48;8.77;;;;;;;;;;10408777;28;20026;-81
2023/10/26 12:18:59;;;;;;;13.10;11.68;;;;;;;;;;10408726;28;20037;-81
2023/10/26 12:24:00;;;;;;;16.45;11.95;;;;;;;;;;10394923;28;20022;-83
2023/10/26 12:29:03;;;;;;;12.80;10.75;;;;;;;;;;10388328;28;20056;-82
2023/10/26 12:34:04;;;;;;;13.05;11.20;;;;;;;;;;10388055;28;20073;-83
2023/10/26 12:39:05;;;;;;;12.05;10.02;;;;;;;;;;10389590;28;20175;-81
2023/10/26 12:44:07;;;;;;;11.75;10.50;;;;;;;;;;10386782;28;20124;-81
2023/10/26 12:49:08;;;;;;;11.55;10.35;;;;;;;;;;10386870;28;20026;-82
2023/10/26 12:54:10;;;;;;;12.88;10.25;;;;;;;;;;10386286;28;20406;-81
2023/10/26 12:59:11;;;;;;;10.23;9.13;;;;;;;;;;10378542;28;20099;-80
2023/10/26 13:04:12;;;;;;;12.77;11.40;;;;;;;;;;10385576;28;20026;-81
2023/10/26 13:09:13;;;;;;;14.20;10.70;;;;;;;;;;10389928;28;20070;-80
2023/10/26 13:14:14;;;;;;;13.82;11.95;;;;;;;;;;10399493;28;20049;-81
2023/10/26 13:19:22;;;;;;;11.13;8.88;;;;;;;;;;10380758;28;20040;-81
2023/10/26 13:24:23;;;;;;;12.23;9.98;;;;;;;;;;10385388;28;20018;-83
2023/10/26 13:29:24;;;;;;;11.07;9.35;;;;;;;;;;10387993;28;20125;-80
2023/10/26 13:34:25;;;;;;;11.40;9.60;;;;;;;;;;10381200;28;20045;-81
2023/10/26 13:39:26;;;;;;;14.25;10.50;;;;;;;;;;10381453;28;20030;-80
2023/10/26 13:44:27;;;;;;;9.95;8.95;;;;;;;;;;10383544;28;20382;-80
2023/10/26 13:49:28;;;;;;;10.45;8.43;;;;;;;;;;10400270;28;20057;-80
2023/10/26 13:54:29;;;;;;;10.07;8.27;;;;;;;;;;10418686;28;20038;-79
2023/10/26 13:59:30;;;;;;;9.60;8.13;;;;;;;;;;10396141;28;20034;-81
2023/10/26 14:04:34;;;;;;;9.10;7.70;;;;;;;;;;10377782;28;20033;-80
2023/10/26 14:09:35;;;;;;;9.30;7.43;;;;;;;;;;10383005;28;20029;-82
2023/10/26 14:14:36;;;;;;;9.93;7.90;;;;;;;;;;10388304;28;20038;-81
2023/10/26 14:19:37;;;;;;;7.50;6.63;;;;;;;;;;10391728;28;20026;-82
2023/10/26 14:24:57;;;;;;;8.23;7.20;;;;;;;;;;10395486;28;20537;-82
2023/10/26 14:29:59;;;;;;;8.40;7.22;;;;;;;;;;10406337;28;20100;-82
2023/10/26 14:35:00;;;;;;;8.95;7.65;;;;;;;;;;10399959;28;20038;-82
2023/10/26 14:40:01;;;;;;;6.60;5.82;;;;;;;;;;10400761;28;20042;-81
2023/10/26 14:45:02;;;;;;;8.07;5.88;;;;;;;;;;10398806;28;20394;-82
2023/10/26 14:50:12;;;;;;;6.75;5.75;;;;;;;;;;10386403;28;20076;-82
2023/10/26 14:55:13;;;;;;;6.22;5.30;;;;;;;;;;10387286;28;20149;-81
2023/10/26 15:00:14;;;;;;;7.82;5.93;;;;;;;;;;10386578;28;20088;-81
2023/10/26 15:05:15;;;;;;;5.18;4.68;;;;;;;;;;10386842;28;20394;-82
2023/10/26 15:10:16;;;;;;;7.22;5.07;;;;;;;;;;10385617;28;20124;-82
2023/10/26 15:15:20;;;;;;;5.72;4.97;;;;;;;;;;10384657;28;20050;-82
2023/10/26 15:20:21;;;;;;;5.60;4.70;;;;;;;;;;10383838;28;20021;-82
2023/10/26 15:25:22;;;;;;;4.90;3.50;;;;;;;;;;10385198;28;20389;-82
2023/10/26 15:30:23;;;;;;;5.97;3.75;;;;;;;;;;10384165;28;20022;-83
2023/10/26 15:35:24;;;;;;;4.95;3.53;;;;;;;;;;10387088;28;20397;-83
2023/10/26 15:40:25;;;;;;;5.60;3.28;;;;;;;;;;10384182;28;20113;-83
2023/10/26 15:45:26;;;;;;;6.32;4.15;;;;;;;;;;10390247;28;20046;-81
2023/10/26 15:50:29;;;;;;;4.68;3.60;;;;;;;;;;10388586;28;20108;-81
2023/10/26 15:55:30;;;;;;;4.57;3.50;;;;;;;;;;10382789;28;20121;-82
2023/10/26 16:00:31;;;;;;;5.30;4.78;;;;;;;;;;10382067;28;20128;-81
2023/10/26 16:05:33;;;;;;;5.25;3.80;;;;;;;;;;10381626;28;20446;-81
2023/10/26 16:10:39;;;;;;;4.25;3.47;;;;;;;;;;10392130;28;20561;-82
2023/10/26 16:15:41;;;;;;;4.53;3.40;;;;;;;;;;10397778;28;20026;-83
2023/10/26 16:20:42;;;;;;;4.85;3.47;;;;;;;;;;10395492;28;20018;-77
2023/10/26 16:25:43;;;;;;;5.18;3.72;;;;;;;;;;10388622;28;20437;-80
2023/10/26 16:30:44;;;;;;;5.90;3.60;;;;;;;;;;10390673;28;20079;-82
2023/10/26 16:35:48;;;;;;;4.40;4.00;;;;;;;;;;10384462;28;20026;-81
2023/10/26 16:40:49;;;;;;;4.85;3.90;;;;;;;;;;10385570;28;20021;-83
2023/10/26 16:45:50;;;;;;;5.78;5.15;;;;;;;;;;10390192;28;20022;-83
2023/10/26 16:50:55;;;;;;;8.73;5.80;;;;;;;;;;10390896;28;20473;-82
2023/10/26 16:55:58;;;;;;;6.25;4.63;;;;;;;;;;10389404;28;20030;-82
2023/10/26 17:00:59;;;;;;;6.35;5.65;;;;;;;;;;10389821;28;20437;-80
2023/10/26 17:06:00;;;;;;;7.88;6.05;;;;;;;;;;10391102;28;20080;-82
2023/10/26 17:11:01;;;;;;;8.75;6.50;;;;;;;;;;10391247;28;20025;-82
2023/10/26 17:16:03;;;;;;;7.28;6.38;;;;;;;;;;10395155;28;20057;-81
2023/10/26 17:21:08;;;;;;;7.20;5.75;;;;;;;;;;10393456;28;20026;-82
2023/10/26 17:26:12;;;;;;;7.72;6.30;;;;;;;;;;10395988;28;20094;-82
2023/10/26 17:31:13;;;;;;;7.97;5.30;;;;;;;;;;10398408;28;20026;-82
2023/10/26 17:36:15;;;;;;;6.32;5.47;;;;;;;;;;10398082;28;20036;-81
2023/10/26 17:41:16;;;;;;;5.95;5.18;;;;;;;;;;10402408;28;20034;-81
2023/10/26 17:46:17;;;;;;;7.88;6.35;;;;;;;;;;10405722;28;20029;-82
2023/10/26 17:51:18;;;;;;;7.35;6.15;;;;;;;;;;10416044;28;20022;-81
2023/10/26 17:56:19;;;;;;;9.65;8.30;;;;;;;;;;10380325;28;20034;-81
2023/10/26 18:01:22;;;;;;;10.38;8.57;;;;;;;;;;10381240;28;20057;-82
2023/10/26 18:06:23;;;;;;;11.63;9.35;;;;;;;;;;10379793;28;20044;-82
2023/10/26 18:11:24;;;;;;;7.93;7.13;;;;;;;;;;10380935;28;20026;-82
2023/10/26 18:16:26;;;;;;;9.65;7.20;;;;;;;;;;10379701;28;20028;-82
2023/10/26 18:21:27;;;;;;;8.30;7.13;;;;;;;;;;10393001;28;20121;-81
2023/10/26 18:26:28;;;;;;;10.20;9.05;;;;;;;;;;10393038;28;20026;-80
2023/10/26 18:31:29;;;;;;;18.00;15.63;;;;;;;;;;10389580;28;20057;-80
2023/10/26 18:36:31;;;;;;;15.65;13.35;;;;;;;;;;10389839;28;20087;-80
2023/10/26 18:41:33;;;;;;;8.98;7.90;;;;;;;;;;10375743;28;20022;-81
2023/10/26 18:46:34;;;;;;;8.43;7.53;;;;;;;;;;10376939;28;20548;-81
2023/10/26 18:51:35;;;;;;;6.63;5.97;;;;;;;;;;10375893;28;20057;-81
2023/10/26 18:56:36;;;;;;;11.32;9.80;;;;;;;;;;10381317;28;20029;-81
2023/10/26 19:01:38;;;;;;;8.77;6.63;;;;;;;;;;10382700;28;20037;-81
2023/10/26 19:06:39;;;;;;;9.15;7.88;;;;;;;;;;10382127;28;20022;-81
2023/10/26 19:11:40;;;;;;;11.85;9.73;;;;;;;;;;10381751;28;20116;-81
